aviador You're here:

KSAV Decoded Metar

SAVANNAH in GA, USA
Report Time2018-06-25 06:10:00
UTC Time2018-06-25 06:17:13
Flight Rules mvfr MVFR
Wind040° at 04 kt
W.Decomp.*RWY 01: 3.2 kt HW 2.4 kt RCW
RWY 10: 2.4 kt HW 3.2 kt LCW
W.Rank040° ranks 9
Current wind is below 040° avg. (6.8)
Visibility9999 m
Phenomena:Vicinity thunderstorm
Clouds:Broken 029 Hf
Expected CloudBase > 1,600 ft AGL from Temp-Dew spread
Ceiling2,900 ft
Temp25°C (ISA +10)
Dew Point21°C (79% RH)
QNH1019 hPa
Density Alt1,342 ft
Elevation46 ft
Report Wrong Elevation
Raw Report
KSAV 250610Z AUTO 04004KT 10SM VCTS BKN029 25/21 A3009=

Extra information for KSAV:More info

Metar Taf Metar & Taf Last 4 Metars F.Rules Stats Wind Profile Meteogram Temp Stats Airport Information Weather charts Add Link Nearby VenuesMetar ALERT Operation Metar Decoded Social comments

AIRNAV info for KSAV